»·PEaware :: N136TH L71-KSNA

N136TH :: L71-KSNA

FLIGHT INFORMATION

Flight Status: Arrived
Operator: Privately registered:
United States
More flights under this callsign
Pilot: Teofilo H. (11827)
Aircraft: PIPER PA-34 SENECA
(PA34)
More flights by this aircraft type
Origin: L71 California City Mun
United States
Destination: KSNA John Wayne-Orange Co
United States
More flights between these airports :: More routes between these airports
Route: +
File this flight plan on PilotEdge
Remarks:
Altitude:
(Current/Filed)
9,500ft
Speed:
(Current/Filed)
150kts
Departed: 21-Dec-17 04:39 PM
Arrived: 21-Dec-17 05:14 PM
Distance/Time
Traveled:
89nm/0:35
Distance/Time
To Go:
Arrived

Flight Plot

Page will automatically refresh every two minutes.

Flight plan parsing failed; only flown route is shown


Map Options




Map Legend


Flown Route
Filed Route
Departure Airport
Arrival Airport
Navaid (VOR, NDB)
Fix

Horizontal Profiles

Position Reports

Time Latitude Longitude Heading Altitude Ground
Speed
21-Dec-17 16:36 35.150331 -118.015722 90 2425ft 0kts
21-Dec-17 16:37 35.150331 -118.015722 90 2425ft 0kts
21-Dec-17 16:38 35.150331 -118.015722 90 2425ft 0kts
21-Dec-17 16:39 35.150331 -118.015722 90 2425ft 0kts
21-Dec-17 16:40 35.150331 -118.015722 90 2425ft 0kts
21-Dec-17 16:41 35.150331 -118.015722 90 2425ft 0kts
21-Dec-17 16:42 35.150402 -118.015589 27 2424ft 7kts
21-Dec-17 16:43 35.149756 -118.020369 254 2437ft 19kts
21-Dec-17 16:44 35.149116 -118.026241 14 2449ft 13kts
21-Dec-17 16:45 35.154118 -117.998344 80 3120ft 112kts
21-Dec-17 16:46 35.142358 -117.979846 199 4895ft 95kts
21-Dec-17 16:47 35.117332 -117.990165 188 6393ft 102kts
21-Dec-17 16:48 35.088040 -117.997130 184 7793ft 113kts
21-Dec-17 16:49 35.056148 -118.002478 185 9134ft 118kts
21-Dec-17 16:50 35.017446 -118.008445 185 9497ft 170kts
21-Dec-17 16:51 34.967624 -118.015886 183 9491ft 186kts
21-Dec-17 16:52 34.915890 -118.023225 184 9490ft 189kts
21-Dec-17 16:53 34.869617 -118.029840 184 9491ft 189kts
21-Dec-17 16:54 34.817243 -118.037327 184 9491ft 190kts
21-Dec-17 16:55 34.765765 -118.044735 183 9491ft 191kts
21-Dec-17 16:56 34.713309 -118.052163 183 9491ft 192kts
21-Dec-17 16:57 34.660239 -118.059715 183 9491ft 192kts
21-Dec-17 16:58 34.607552 -118.058951 167 9491ft 189kts
21-Dec-17 16:59 34.555835 -118.048259 166 9491ft 189kts
21-Dec-17 17:00 34.504159 -118.037525 166 9491ft 189kts
21-Dec-17 17:01 34.452500 -118.026862 166 9491ft 189kts
21-Dec-17 17:02 34.400586 -118.016164 166 9494ft 190kts
21-Dec-17 17:03 34.348631 -118.005477 166 9498ft 189kts
21-Dec-17 17:04 34.296942 -117.994864 166 9526ft 187kts
21-Dec-17 17:05 34.245269 -117.984248 166 9545ft 189kts
21-Dec-17 17:06 34.193744 -117.973675 167 9543ft 189kts
21-Dec-17 17:07 34.141843 -117.963331 164 9491ft 187kts
21-Dec-17 17:08 34.091084 -117.952762 160 9491ft 190kts
21-Dec-17 17:09 34.038246 -117.941882 161 9493ft 196kts
21-Dec-17 17:10 33.984755 -117.930983 161 9493ft 197kts
21-Dec-17 17:11 33.930179 -117.919856 161 9494ft 202kts
21-Dec-17 17:12 33.877864 -117.909233 161 9489ft 201kts
21-Dec-17 17:13 33.823318 -117.897940 165 8210ft 197kts
21-Dec-17 17:14 33.773908 -117.888210 166 6519ft 168kts
21-Dec-17 17:15 33.731520 -117.879420 165 4899ft 143kts
21-Dec-17 17:16 33.695195 -117.871481 166 3290ft 126kts
21-Dec-17 17:17 33.674239 -117.897246 224 1984ft 106kts
21-Dec-17 17:18 33.652846 -117.903170 91 1530ft 104kts
21-Dec-17 17:19 33.661189 -117.875977 26 444ft 92kts
21-Dec-17 17:20 33.676954 -117.866102 59 43ft 16kts
21-Dec-17 17:21 33.674705 -117.866083 207 44ft 17kts
21-Dec-17 17:22 33.670686 -117.868492 63 48ft 2kts
21-Dec-17 17:23 33.670692 -117.868478 61 48ft 0kts
21-Dec-17 17:24 33.670692 -117.868478 61 48ft 0kts
21-Dec-17 17:25 33.670692 -117.868478 61 48ft 0kts
21-Dec-17 17:26 33.670692 -117.868478 61 48ft 0kts
21-Dec-17 17:27 33.670692 -117.868478 61 48ft 0kts
21-Dec-17 17:28 33.670692 -117.868478 61 48ft 0kts
21-Dec-17 17:29 33.670692 -117.868478 61 48ft 0kts
21-Dec-17 17:30 33.670692 -117.868478 61 48ft 0kts
21-Dec-17 17:31 33.670692 -117.868478 61 48ft 0kts
21-Dec-17 17:32 33.670692 -117.868478 61 48ft 0kts
21-Dec-17 17:33 33.670692 -117.868478 61 48ft 0kts
21-Dec-17 17:34 33.670692 -117.868478 61 48ft 0kts

Navigation Log

Ident Type
Flight plan parsing failed, navigation log unavailable